createdAt,value
2019-01-19T00:02:16.719Z,4.80
2019-01-19T00:04:58.328Z,3.87
2019-01-19T00:07:28.431Z,4.27
2019-01-19T00:10:10.459Z,6.77
2019-01-19T00:12:49.300Z,4.73
2019-01-19T00:15:19.383Z,4.07
2019-01-19T00:18:01.632Z,5.03
2019-01-19T00:20:41.153Z,5.77
2019-01-19T00:23:27.833Z,5.07
2019-01-19T00:26:15.884Z,4.83
2019-01-19T00:28:51.784Z,5.17
2019-01-19T00:31:24.622Z,5.60
2019-01-19T00:34:09.391Z,4.30
2019-01-19T00:36:39.489Z,4.13
2019-01-19T00:39:09.575Z,5.95
2019-01-19T00:41:48.349Z,5.57
2019-01-19T00:44:24.236Z,5.37
2019-01-19T00:46:57.088Z,4.80
2019-01-19T00:49:23.362Z,5.10
2019-01-19T00:52:19.292Z,5.30
2019-01-19T00:54:49.625Z,5.10
2019-01-19T00:57:28.533Z,6.43
2019-01-19T00:59:54.777Z,5.40
2019-01-19T01:02:43.106Z,5.77
2019-01-19T01:05:13.187Z,3.97
2019-01-19T01:08:04.517Z,5.67
2019-01-19T01:10:44.048Z,5.53
2019-01-19T01:13:14.138Z,3.87
2019-01-19T01:16:07.388Z,4.13
2019-01-19T01:18:46.566Z,3.30
2019-01-19T01:21:37.512Z,4.27
2019-01-19T01:24:07.877Z,5.03
2019-01-19T01:26:55.597Z,7.77
2019-01-19T01:29:53.424Z,5.00
2019-01-19T01:32:41.867Z,3.90
2019-01-19T01:35:14.932Z,5.60
2019-01-19T01:38:04.706Z,6.33
2019-01-19T01:40:43.621Z,4.60
2019-01-19T01:43:13.669Z,5.67
2019-01-19T01:45:58.940Z,7.63
2019-01-19T01:48:45.560Z,4.37
2019-01-19T01:51:21.447Z,4.53
2019-01-19T01:54:06.669Z,5.83
2019-01-19T01:56:33.387Z,4.17
2019-01-19T01:59:15.525Z,5.63
2019-01-19T02:01:54.699Z,5.95
2019-01-19T02:04:27.676Z,6.10
2019-01-19T02:07:25.490Z,7.30
2019-01-19T02:10:01.924Z,4.27
2019-01-19T02:12:52.957Z,6.20
2019-01-19T02:15:28.830Z,5.53
2019-01-19T02:18:10.769Z,5.30
2019-01-19T02:20:49.589Z,5.80
2019-01-19T02:23:24.985Z,6.40
2019-01-19T02:26:09.617Z,5.93
2019-01-19T02:29:13.236Z,6.43
2019-01-19T02:31:46.395Z,5.80
2019-01-19T02:34:25.458Z,5.93
2019-01-19T02:36:55.550Z,4.40
2019-01-19T02:39:43.683Z,6.03
2019-01-19T02:42:16.590Z,7.87
2019-01-19T02:44:52.719Z,7.03
2019-01-19T02:47:35.450Z,4.83
2019-01-19T02:50:11.943Z,7.57
2019-01-19T02:52:48.086Z,5.92
2019-01-19T02:55:27.611Z,5.10
2019-01-19T02:58:06.808Z,9.40
2019-01-19T03:00:39.608Z,6.13
2019-01-19T03:03:09.682Z,4.10
2019-01-19T03:05:39.723Z,11.40
2019-01-19T03:08:12.562Z,8.73
2019-01-19T03:10:51.745Z,8.63
2019-01-19T03:13:41.047Z,4.73
2019-01-19T03:16:35.536Z,5.53
2019-01-19T03:19:20.595Z,5.70
2019-01-19T03:22:14.466Z,6.70
2019-01-19T03:25:02.723Z,4.23
2019-01-19T03:27:50.526Z,6.30
2019-01-19T03:30:35.656Z,8.93
2019-01-19T03:33:22.429Z,6.43
2019-01-19T03:36:07.467Z,5.93
2019-01-19T03:38:56.440Z,6.47
2019-01-19T03:41:36.298Z,8.87
2019-01-19T03:44:06.383Z,7.10
2019-01-19T03:47:11.477Z,7.27
2019-01-19T03:49:53.663Z,6.57
2019-01-19T03:52:23.733Z,5.80
2019-01-19T03:54:53.779Z,7.33
2019-01-19T03:57:41.627Z,7.73
2019-01-19T04:00:14.420Z,5.47
2019-01-19T04:02:47.256Z,4.87
2019-01-19T04:05:36.046Z,8.33
2019-01-19T04:08:27.703Z,8.13
2019-01-19T04:11:16.033Z,6.17
2019-01-19T04:13:46.079Z,12.10
2019-01-19T04:16:19.004Z,9.80
2019-01-19T04:18:55.194Z,5.83
2019-01-19T04:21:37.131Z,4.87
2019-01-19T04:24:10.254Z,7.00
2019-01-19T04:26:36.520Z,7.87
2019-01-19T04:29:03.084Z,5.80
2019-01-19T04:31:29.352Z,7.03
2019-01-19T04:33:56.008Z,4.40
2019-01-19T04:36:22.682Z,5.33
2019-01-19T04:38:49.346Z,5.20
2019-01-19T04:41:15.989Z,7.57
2019-01-19T04:43:42.271Z,6.23
2019-01-19T04:46:08.634Z,5.77
2019-01-19T04:48:35.387Z,5.67
2019-01-19T04:51:01.646Z,6.03
2019-01-19T04:53:27.901Z,4.83
2019-01-19T04:55:54.166Z,6.43
2019-01-19T04:58:20.448Z,7.33
2019-01-19T05:00:46.688Z,6.10
2019-01-19T05:03:12.974Z,5.53
2019-01-19T05:05:39.234Z,6.53
2019-01-19T05:08:05.580Z,4.50
2019-01-19T05:10:32.268Z,5.03
2019-01-19T05:12:58.632Z,7.07
2019-01-19T05:15:24.883Z,7.27
2019-01-19T05:17:51.458Z,6.67
2019-01-19T05:20:18.084Z,5.00
2019-01-19T05:22:44.351Z,5.87
2019-01-19T05:25:12.185Z,5.53
2019-01-19T05:27:38.709Z,5.57
2019-01-19T05:30:12.086Z,5.17
2019-01-19T05:32:38.547Z,6.43
2019-01-19T05:35:05.424Z,5.47
2019-01-19T05:37:31.707Z,5.93
2019-01-19T05:39:57.952Z,7.60
2019-01-19T05:42:24.218Z,8.50
2019-01-19T05:44:50.510Z,5.37
2019-01-19T05:47:16.869Z,9.17
2019-01-19T05:49:43.135Z,7.33
2019-01-19T05:52:09.402Z,5.80
2019-01-19T05:54:35.656Z,6.50
2019-01-19T05:57:02.022Z,6.47
2019-01-19T05:59:28.279Z,6.07
2019-01-19T06:01:54.534Z,4.60
2019-01-19T06:04:21.175Z,4.00
2019-01-19T06:06:47.429Z,7.10
2019-01-19T06:09:13.729Z,4.90
2019-01-19T06:11:39.977Z,4.70
2019-01-19T06:14:06.212Z,5.53
2019-01-19T06:16:32.504Z,5.27
2019-01-19T06:18:58.945Z,6.33
2019-01-19T06:21:26.659Z,4.63
2019-01-19T06:23:52.910Z,6.90
2019-01-19T06:26:19.275Z,4.73
2019-01-19T06:28:45.867Z,4.13
2019-01-19T06:31:12.124Z,4.77
2019-01-19T06:33:38.408Z,5.10
2019-01-19T06:36:04.783Z,6.10
2019-01-19T06:38:31.011Z,5.10
2019-01-19T06:40:57.282Z,6.80
2019-01-19T06:43:23.543Z,6.60
2019-01-19T06:45:49.800Z,6.97
2019-01-19T06:48:16.075Z,7.13
2019-01-19T06:50:42.620Z,6.47
2019-01-19T06:53:08.899Z,7.33
2019-01-19T06:55:35.354Z,4.20
2019-01-19T06:58:01.595Z,7.13
2019-01-19T07:00:27.983Z,5.90
2019-01-19T07:02:54.234Z,6.43
2019-01-19T07:05:20.491Z,8.70
2019-01-19T07:07:46.754Z,17.03
2019-01-19T07:10:18.855Z,19.87
2019-01-19T07:12:45.204Z,21.97
2019-01-19T07:15:12.595Z,17.73
2019-01-19T07:17:38.951Z,9.40
2019-01-19T07:20:14.566Z,9.67
2019-01-19T07:22:41.130Z,11.60
2019-01-19T07:25:07.676Z,6.70
2019-01-19T07:27:34.267Z,9.77
2019-01-19T07:30:00.503Z,4.87
2019-01-19T07:32:26.758Z,5.60
2019-01-19T07:34:53.022Z,8.37
2019-01-19T07:37:19.576Z,4.13
2019-01-19T07:39:45.845Z,5.10
2019-01-19T07:42:12.130Z,5.97
2019-01-19T07:44:38.475Z,5.40
2019-01-19T07:47:05.335Z,8.23
2019-01-19T07:49:31.594Z,6.80
2019-01-19T07:51:58.190Z,7.67
2019-01-19T07:54:24.445Z,6.17
2019-01-19T07:56:52.169Z,5.80
2019-01-19T07:59:19.768Z,6.43
2019-01-19T08:01:46.138Z,7.23
2019-01-19T08:04:12.392Z,8.83
2019-01-19T08:06:38.663Z,5.60
2019-01-19T08:09:06.244Z,7.30
2019-01-19T08:11:32.608Z,5.37
2019-01-19T08:13:58.866Z,5.40
2019-01-19T08:16:25.238Z,5.17
2019-01-19T08:18:51.503Z,5.60
2019-01-19T08:21:17.878Z,5.37
2019-01-19T08:23:44.115Z,6.67
2019-01-19T08:26:10.406Z,7.07
2019-01-19T08:28:36.655Z,7.28
2019-01-19T08:31:03.296Z,5.70
2019-01-19T08:33:29.585Z,6.83
2019-01-19T08:35:56.144Z,5.20
2019-01-19T08:38:22.434Z,7.73
2019-01-19T08:40:48.690Z,5.93
2019-01-19T08:43:19.831Z,7.93
2019-01-19T08:45:46.117Z,10.13
2019-01-19T08:48:13.163Z,7.80
2019-01-19T08:50:39.445Z,9.55
2019-01-19T08:53:05.810Z,6.73
2019-01-19T08:55:32.151Z,6.03
2019-01-19T08:57:58.430Z,6.80
2019-01-19T09:00:24.687Z,5.43
2019-01-19T09:02:51.048Z,4.80
2019-01-19T09:05:17.439Z,6.57
2019-01-19T09:07:44.000Z,5.43
2019-01-19T09:10:13.383Z,5.87
2019-01-19T09:12:39.642Z,5.03
2019-01-19T09:15:09.957Z,6.80
2019-01-19T09:17:36.223Z,6.53
2019-01-19T09:20:05.391Z,6.90
2019-01-19T09:22:32.083Z,6.17
2019-01-19T09:24:58.398Z,4.67
2019-01-19T09:27:24.981Z,5.10
2019-01-19T09:29:51.229Z,6.50
2019-01-19T09:32:17.812Z,4.63
2019-01-19T09:34:44.045Z,7.07
2019-01-19T09:37:10.321Z,6.80
2019-01-19T09:39:36.587Z,5.57
2019-01-19T09:42:03.039Z,6.23
2019-01-19T09:44:29.327Z,7.63
2019-01-19T09:46:55.577Z,6.23
2019-01-19T09:49:22.042Z,9.10
2019-01-19T09:51:48.306Z,7.70
2019-01-19T09:54:14.552Z,6.57
2019-01-19T09:56:40.939Z,7.63
2019-01-19T09:59:07.194Z,6.80
2019-01-19T10:01:33.451Z,6.60
2019-01-19T10:03:59.813Z,8.90
2019-01-19T10:06:26.107Z,8.80
2019-01-19T10:08:52.792Z,10.67
2019-01-19T10:11:19.283Z,6.63
2019-01-19T10:13:45.823Z,11.87
2019-01-19T10:16:12.205Z,11.10
2019-01-19T10:18:38.671Z,9.47
2019-01-19T10:21:05.432Z,9.83
2019-01-19T10:23:31.715Z,8.50
2019-01-19T10:25:58.059Z,9.30
2019-01-19T10:28:24.423Z,11.77
2019-01-19T10:30:51.619Z,14.00
2019-01-19T10:33:19.296Z,7.80
2019-01-19T10:35:45.610Z,8.17
2019-01-19T10:38:11.878Z,10.93
2019-01-19T10:40:38.227Z,12.07
2019-01-19T10:43:04.602Z,11.10
2019-01-19T10:45:30.873Z,8.93
2019-01-19T10:47:57.415Z,11.10
2019-01-19T10:50:23.803Z,10.30
2019-01-19T10:52:50.643Z,11.33
2019-01-19T10:55:21.294Z,12.57
2019-01-19T10:57:47.667Z,11.40
2019-01-19T11:00:17.484Z,11.33
2019-01-19T11:02:43.875Z,13.50
2019-01-19T11:05:13.316Z,13.15
2019-01-19T11:07:42.990Z,14.93
2019-01-19T11:10:12.957Z,10.87
2019-01-19T11:12:39.295Z,10.70
2019-01-19T11:15:09.174Z,10.17
2019-01-19T11:17:35.441Z,8.17
2019-01-19T11:20:01.905Z,11.70
2019-01-19T11:22:28.488Z,13.80
2019-01-19T11:24:54.744Z,9.07
2019-01-19T11:27:21.048Z,9.67
2019-01-19T11:29:47.266Z,8.93
2019-01-19T11:32:13.508Z,7.03
2019-01-19T11:34:39.794Z,11.47
2019-01-19T11:37:06.050Z,13.23
2019-01-19T11:39:32.312Z,8.60
2019-01-19T11:41:58.921Z,8.60
2019-01-19T11:44:25.174Z,7.40
2019-01-19T11:46:51.439Z,9.43
2019-01-19T11:49:18.020Z,9.73
2019-01-19T11:51:44.287Z,12.10
2019-01-19T11:54:10.770Z,6.70
2019-01-19T11:56:37.419Z,7.87
2019-01-19T11:59:03.697Z,10.23
2019-01-19T12:01:29.963Z,8.50
2019-01-19T12:03:56.223Z,7.30
2019-01-19T12:09:51.208Z,11.47
2019-01-19T12:12:17.460Z,11.05
2019-01-19T12:14:43.834Z,10.10
2019-01-19T12:17:10.071Z,10.03
2019-01-19T12:19:36.340Z,9.93
2019-01-19T12:22:02.911Z,12.67
2019-01-19T12:24:29.488Z,6.13
2019-01-19T12:26:56.039Z,9.23
2019-01-19T12:29:22.325Z,9.55
2019-01-19T12:31:48.673Z,9.27
2019-01-19T12:34:14.932Z,8.93
2019-01-19T12:36:41.192Z,7.57
2019-01-19T12:39:07.762Z,9.30
2019-01-19T12:41:35.793Z,8.03
2019-01-19T12:44:02.271Z,8.67
2019-01-19T12:46:28.543Z,9.00
2019-01-19T12:48:54.807Z,10.50
2019-01-19T12:51:21.060Z,9.93
2019-01-19T12:53:47.336Z,9.07
2019-01-19T12:56:14.119Z,11.43
2019-01-19T12:58:40.491Z,9.03
2019-01-19T13:01:06.959Z,8.03
2019-01-19T13:03:33.323Z,7.37
2019-01-19T13:06:15.380Z,8.43
2019-01-19T13:08:41.649Z,9.87
2019-01-19T13:11:29.518Z,5.13
2019-01-19T13:13:55.810Z,7.13
2019-01-19T13:16:59.252Z,7.57
2019-01-19T13:19:29.326Z,5.37
2019-01-19T13:22:11.526Z,5.67
2019-01-19T13:25:02.221Z,9.07
2019-01-19T13:27:50.274Z,8.13
2019-01-19T13:30:41.615Z,6.13
2019-01-19T13:33:12.112Z,4.13
2019-01-19T13:35:58.751Z,6.07
2019-01-19T13:38:42.030Z,8.77
2019-01-19T13:41:38.232Z,6.87
2019-01-19T13:44:35.324Z,5.97
2019-01-19T13:47:14.188Z,5.17
2019-01-19T13:50:04.652Z,5.13
2019-01-19T13:52:55.667Z,6.83
2019-01-19T13:55:30.611Z,6.83
2019-01-19T13:58:03.629Z,4.83
2019-01-19T14:00:45.203Z,5.53
2019-01-19T14:03:15.282Z,4.73
2019-01-19T14:05:48.636Z,3.43
2019-01-19T14:08:30.342Z,6.27
2019-01-19T14:11:11.835Z,4.10
2019-01-19T14:13:44.941Z,3.77
2019-01-19T14:16:18.001Z,4.50
2019-01-19T14:19:03.354Z,5.40
2019-01-19T14:21:39.077Z,3.93
2019-01-19T14:24:15.477Z,4.83
2019-01-19T14:26:54.784Z,3.53
2019-01-19T14:29:39.979Z,4.77
2019-01-19T14:32:15.832Z,4.87
2019-01-19T14:34:51.947Z,5.73
2019-01-19T14:37:55.938Z,4.37
2019-01-19T14:40:41.051Z,2.93
2019-01-19T14:43:20.191Z,5.40
2019-01-19T14:45:56.526Z,5.93
2019-01-19T14:48:29.763Z,4.10
2019-01-19T14:51:14.858Z,4.00
2019-01-19T14:54:00.003Z,4.90
2019-01-19T14:56:52.820Z,5.60
2019-01-19T14:59:25.971Z,3.87
2019-01-19T15:02:23.451Z,3.70
2019-01-19T15:04:56.734Z,3.60
2019-01-19T15:07:33.048Z,4.97
2019-01-19T15:10:06.060Z,3.73
2019-01-19T15:12:36.135Z,4.80
2019-01-19T15:15:18.596Z,3.70
2019-01-19T15:17:51.415Z,3.73
2019-01-19T15:20:36.338Z,4.53
2019-01-19T15:23:12.348Z,4.30
2019-01-19T15:25:45.777Z,5.27
2019-01-19T15:28:36.915Z,6.57
2019-01-19T15:31:15.530Z,5.70
2019-01-19T15:34:02.403Z,3.50
2019-01-19T15:36:35.183Z,4.90
2019-01-19T15:39:11.688Z,8.27
2019-01-19T15:41:58.691Z,9.07
2019-01-19T15:44:31.587Z,5.47
2019-01-19T15:47:05.668Z,7.93
2019-01-19T15:49:54.571Z,5.80
2019-01-19T15:52:30.699Z,7.23
2019-01-19T15:55:06.070Z,5.77
2019-01-19T15:57:42.244Z,5.47
2019-01-19T16:00:30.279Z,9.90
2019-01-19T16:03:00.667Z,6.77
2019-01-19T16:05:39.460Z,6.53
2019-01-19T16:08:27.375Z,6.30
2019-01-19T16:11:06.702Z,5.43
2019-01-19T16:13:48.927Z,5.67
2019-01-19T16:16:35.933Z,6.13
2019-01-19T16:19:08.978Z,8.00
2019-01-19T16:21:53.672Z,8.07
2019-01-19T16:24:35.338Z,7.90
2019-01-19T16:27:08.171Z,12.30
2019-01-19T16:29:53.106Z,19.40
2019-01-19T16:32:41.155Z,13.97
2019-01-19T16:35:17.238Z,14.97
2019-01-19T16:38:05.427Z,14.93
2019-01-19T16:40:38.516Z,14.20
2019-01-19T16:43:14.619Z,15.00
2019-01-19T16:46:08.686Z,16.63
2019-01-19T16:48:44.765Z,13.20
2019-01-19T16:51:20.866Z,12.77
2019-01-19T16:54:03.247Z,9.87
2019-01-19T16:56:39.344Z,11.43
2019-01-19T16:59:24.026Z,8.13
2019-01-19T17:02:00.144Z,6.93
2019-01-19T17:04:45.203Z,6.63
2019-01-19T17:07:24.394Z,5.07
2019-01-19T17:09:54.436Z,6.93
2019-01-19T17:12:33.318Z,7.20
2019-01-19T17:15:23.275Z,7.80
2019-01-19T17:17:56.475Z,7.10
2019-01-19T17:20:38.510Z,5.63
2019-01-19T17:23:08.579Z,8.30
2019-01-19T17:25:57.366Z,6.40
2019-01-19T17:28:30.515Z,7.77
2019-01-19T17:31:03.600Z,9.37
2019-01-19T17:33:42.776Z,8.40
2019-01-19T17:36:27.430Z,7.10
2019-01-19T17:39:39.939Z,10.73
2019-01-19T17:42:24.577Z,9.23
2019-01-19T17:45:16.303Z,9.30
2019-01-19T17:48:19.867Z,7.43
2019-01-19T17:50:55.950Z,8.17
2019-01-19T17:53:48.760Z,7.63
2019-01-19T17:56:18.835Z,9.70
2019-01-19T17:58:48.911Z,6.97
2019-01-19T18:01:35.736Z,11.47
2019-01-19T18:04:05.810Z,7.27
2019-01-19T18:06:41.366Z,11.17
2019-01-19T18:09:20.287Z,14.90
2019-01-19T18:12:02.479Z,10.03
2019-01-19T18:14:56.166Z,8.40
2019-01-19T18:17:38.319Z,11.03
2019-01-19T18:20:11.323Z,8.47
2019-01-19T18:22:44.363Z,8.20
2019-01-19T18:25:17.413Z,10.10
2019-01-19T18:27:53.511Z,7.60
2019-01-19T18:30:54.224Z,8.13
2019-01-19T18:33:42.406Z,8.20
2019-01-19T18:36:15.463Z,9.63
2019-01-19T18:38:51.544Z,10.37
2019-01-19T18:41:30.577Z,10.40
2019-01-19T18:44:15.533Z,9.47
2019-01-19T18:47:00.245Z,8.83
2019-01-19T18:50:04.037Z,10.20
2019-01-19T18:52:43.060Z,14.00
2019-01-19T18:55:21.919Z,13.97
2019-01-19T18:58:20.972Z,12.10
2019-01-19T19:00:59.844Z,14.77
2019-01-19T19:03:35.190Z,13.13
2019-01-19T19:06:17.263Z,15.67
2019-01-19T19:08:58.920Z,13.77
2019-01-19T19:11:41.091Z,13.47
2019-01-19T19:14:19.944Z,13.00
2019-01-19T19:17:06.702Z,12.13
2019-01-19T19:19:58.159Z,14.50
2019-01-19T19:22:28.240Z,13.90
2019-01-19T19:25:03.863Z,11.37
2019-01-19T19:27:52.581Z,14.27
2019-01-19T19:30:47.019Z,16.10
2019-01-19T19:33:40.966Z,14.70
2019-01-19T19:36:31.899Z,11.87
2019-01-19T19:39:20.423Z,13.50
2019-01-19T19:41:59.707Z,13.40
2019-01-19T19:44:44.826Z,16.30
2019-01-19T19:47:47.097Z,14.90
2019-01-19T19:50:20.478Z,13.20
2019-01-19T19:52:46.738Z,15.23
2019-01-19T19:55:12.823Z,16.27
2019-01-19T19:57:39.060Z,16.97
2019-01-19T20:00:08.342Z,17.97
2019-01-19T20:02:34.583Z,16.33
2019-01-19T20:05:00.959Z,15.73
2019-01-19T20:07:27.227Z,20.97
2019-01-19T20:09:53.752Z,22.63
2019-01-19T20:12:20.239Z,19.43
2019-01-19T20:14:46.598Z,18.70
2019-01-19T20:17:13.146Z,16.23
2019-01-19T20:19:39.417Z,20.20
2019-01-19T20:22:05.776Z,19.80
2019-01-19T20:24:32.343Z,18.10
2019-01-19T20:26:58.601Z,24.93
2019-01-19T20:29:24.854Z,18.37
2019-01-19T20:31:51.122Z,22.40
2019-01-19T20:34:17.463Z,20.63
2019-01-19T20:36:43.703Z,21.90
2019-01-19T20:39:10.381Z,19.20
2019-01-19T20:41:36.731Z,16.77
2019-01-19T20:44:03.405Z,21.17
2019-01-19T20:46:29.674Z,19.80
2019-01-19T20:48:55.930Z,22.50
2019-01-19T20:51:22.500Z,24.47
2019-01-19T20:53:48.757Z,20.80
2019-01-19T20:56:15.019Z,16.77
2019-01-19T20:58:41.287Z,16.77
2019-01-19T21:01:07.547Z,19.00
2019-01-19T21:03:33.791Z,20.50
2019-01-19T21:06:00.366Z,17.23
2019-01-19T21:08:26.602Z,18.77
2019-01-19T21:10:52.859Z,15.90
2019-01-19T21:13:19.139Z,18.67
2019-01-19T21:15:45.380Z,21.13
2019-01-19T21:18:12.018Z,19.10
2019-01-19T21:20:38.255Z,18.80
2019-01-19T21:23:04.519Z,17.10
2019-01-19T21:25:30.791Z,21.03
2019-01-19T21:27:57.051Z,25.03
2019-01-19T21:30:23.426Z,24.97
2019-01-19T21:32:49.676Z,19.10
2019-01-19T21:35:15.934Z,20.13
2019-01-19T21:37:42.203Z,18.63
2019-01-19T21:40:12.856Z,19.07
2019-01-19T21:42:39.099Z,19.13
2019-01-19T21:45:19.962Z,17.33
2019-01-19T21:47:46.592Z,23.40
2019-01-19T21:50:13.072Z,20.97
2019-01-19T21:52:39.457Z,21.40
2019-01-19T21:55:07.920Z,21.00
2019-01-19T21:57:34.187Z,21.53
2019-01-19T22:00:00.451Z,16.83
2019-01-19T22:02:26.699Z,21.83
2019-01-19T22:04:52.975Z,18.77
2019-01-19T22:07:19.340Z,18.63
2019-01-19T22:09:45.599Z,23.80
2019-01-19T22:12:12.154Z,21.73
2019-01-19T22:14:38.400Z,22.17
2019-01-19T22:17:04.702Z,18.70
2019-01-19T22:19:30.944Z,23.17
2019-01-19T22:21:57.192Z,18.67
2019-01-19T22:24:23.483Z,26.97
2019-01-19T22:26:51.245Z,21.53
2019-01-19T22:29:18.215Z,21.10
2019-01-19T22:31:44.462Z,22.73
2019-01-19T22:34:10.719Z,21.67
2019-01-19T22:36:36.983Z,28.57
2019-01-19T22:39:05.740Z,24.53
2019-01-19T22:41:31.987Z,30.77
2019-01-19T22:43:58.266Z,24.73
2019-01-19T22:46:24.957Z,24.43
2019-01-19T22:48:51.229Z,22.43
2019-01-19T22:51:17.500Z,25.77
2019-01-19T22:53:43.755Z,25.70
2019-01-19T22:56:10.246Z,22.30
2019-01-19T22:58:36.519Z,25.43
2019-01-19T23:01:18.978Z,30.77
2019-01-19T23:03:45.674Z,25.87
2019-01-19T23:06:11.999Z,23.97
2019-01-19T23:08:38.375Z,25.00
2019-01-19T23:11:04.754Z,25.90
2019-01-19T23:13:31.095Z,25.23
2019-01-19T23:15:57.387Z,26.00
2019-01-19T23:18:23.852Z,27.83
2019-01-19T23:20:50.214Z,25.63
2019-01-19T23:23:16.802Z,26.37
2019-01-19T23:25:43.252Z,28.30
2019-01-19T23:28:09.635Z,25.27
2019-01-19T23:30:35.999Z,27.63
2019-01-19T23:33:02.664Z,20.33
2019-01-19T23:35:28.929Z,23.47
2019-01-19T23:37:55.207Z,28.00
2019-01-19T23:40:21.459Z,27.70
2019-01-19T23:42:47.831Z,24.03
2019-01-19T23:45:14.288Z,26.07
2019-01-19T23:47:40.564Z,30.13
2019-01-19T23:50:08.642Z,25.77
2019-01-19T23:52:34.889Z,30.97
2019-01-19T23:55:01.383Z,28.80
2019-01-19T23:57:27.628Z,30.43
2019-01-19T23:59:53.887Z,27.48
